Time;durP1;ratioP1;P1;durP2;ratioP2;P2;SDS_P1;SDS_P2;PMS_P1;PMS_P2;Temp;Humidity;BMP_temperature;BMP_pressure;BME280_temperature;BME280_humidity;BME280_pressure;Samples;Min_cycle;Max_cycle;Signal;HPM_P1;HPM_P2
2023/05/03 04:01:13;;;;;;;0.60;0.30;;;7.40;99.90;;;;;;5817141;22;20503;-78
2023/05/03 04:03:41;;;;;;;0.60;0.20;;;7.30;99.90;;;;;;5058894;28;20434;-79
2023/05/03 04:06:09;;;;;;;0.70;0.40;;;7.30;99.90;;;;;;5056776;28;20449;-77
2023/05/03 04:08:37;;;;;;;0.80;0.80;;;7.30;99.90;;;;;;5056559;28;20430;-78
2023/05/03 04:11:11;;;;;;;1.53;0.77;;;7.30;99.90;;;;;;5057685;28;20473;-78
2023/05/03 04:13:39;;;;;;;2.50;0.63;;;7.30;99.90;;;;;;5072730;22;20460;-73
2023/05/03 04:16:08;;;;;;;1.73;1.23;;;7.20;99.90;;;;;;5053318;28;20446;-73
2023/05/03 04:18:37;;;;;;;0.70;0.30;;;7.20;99.90;;;;;;5056158;28;20449;-73
2023/05/03 04:21:05;;;;;;;0.67;0.30;;;;;;;;;;5052364;28;20934;-73
2023/05/03 04:23:33;;;;;;;1.03;0.70;;;7.20;99.90;;;;;;5042857;28;20460;-73
2023/05/03 04:26:01;;;;;;;0.50;0.10;;;7.20;99.90;;;;;;5032355;28;21020;-73
2023/05/03 04:28:31;;;;;;;0.50;0.20;;;7.20;99.90;;;;;;5015959;28;20467;-73
2023/05/03 04:30:59;;;;;;;0.60;0.10;;;7.20;99.90;;;;;;5029754;28;20459;-71
2023/05/03 04:33:28;;;;;;;1.53;1.17;;;7.20;99.90;;;;;;5029881;28;20543;-73
2023/05/03 04:35:58;;;;;;;0.50;0.10;;;7.20;99.90;;;;;;5030642;28;20473;-72
2023/05/03 04:38:26;;;;;;;0.60;0.10;;;7.20;99.90;;;;;;5026453;28;20431;-73
2023/05/03 04:40:54;;;;;;;0.70;0.50;;;7.20;99.90;;;;;;5016428;28;20486;-73
2023/05/03 04:43:22;;;;;;;1.03;0.37;;;7.20;99.90;;;;;;5017768;28;20513;-72
2023/05/03 04:45:51;;;;;;;0.50;0.10;;;7.20;99.90;;;;;;5033058;28;20800;-73
2023/05/03 04:48:19;;;;;;;0.80;0.53;;;7.10;99.90;;;;;;5025683;28;20445;-74
2023/05/03 04:50:47;;;;;;;2.87;0.70;;;7.10;99.90;;;;;;5033088;28;20491;-74
2023/05/03 04:53:19;;;;;;;0.73;0.60;;;7.10;99.90;;;;;;5032639;28;20451;-72
2023/05/03 04:55:47;;;;;;;1.73;0.70;;;7.20;99.90;;;;;;5033165;28;20439;-72
2023/05/03 04:58:15;;;;;;;0.63;0.30;;;7.20;99.90;;;;;;5033274;28;20566;-73
2023/05/03 05:00:45;;;;;;;1.70;1.03;;;7.20;99.90;;;;;;5032470;28;20494;-73
2023/05/03 05:03:13;;;;;;;0.60;0.20;;;7.30;99.90;;;;;;5012842;28;20845;-73
2023/05/03 05:05:41;;;;;;;0.60;0.10;;;7.30;99.90;;;;;;5013178;28;20487;-74
2023/05/03 05:08:10;;;;;;;0.60;0.30;;;7.30;99.90;;;;;;5012632;28;20463;-72
2023/05/03 05:10:41;;;;;;;0.50;0.10;;;7.30;99.90;;;;;;5019104;28;20444;-73
2023/05/03 05:13:10;;;;;;;0.57;0.17;;;7.40;99.90;;;;;;5032546;28;20453;-72
2023/05/03 05:15:38;;;;;;;0.60;0.20;;;7.40;99.90;;;;;;5030678;28;21004;-72
2023/05/03 05:18:07;;;;;;;0.60;0.20;;;7.40;99.90;;;;;;5030510;28;20955;-72
2023/05/03 05:20:36;;;;;;;0.60;0.10;;;;;;;;;;5029354;28;20489;-73
2023/05/03 05:23:05;;;;;;;0.60;0.30;;;;;;;;;;5030647;28;20462;-73
2023/05/03 05:25:33;;;;;;;2.20;2.10;;;;;;;;;;5029656;28;20487;-73
2023/05/03 05:28:02;;;;;;;0.60;0.30;;;7.50;99.90;;;;;;5032009;28;20450;-74
2023/05/03 05:30:30;;;;;;;0.90;0.63;;;7.50;99.90;;;;;;5032292;28;20443;-73
2023/05/03 05:32:58;;;;;;;0.67;0.30;;;7.60;99.90;;;;;;5032859;28;20466;-73
2023/05/03 05:35:27;;;;;;;0.60;0.20;;;7.60;99.90;;;;;;5029809;28;20483;-72
2023/05/03 05:37:54;;;;;;;0.60;0.10;;;7.60;99.90;;;;;;5032468;28;20446;-73
2023/05/03 05:40:22;;;;;;;1.70;1.60;;;7.60;99.90;;;;;;5031992;28;20482;-73
2023/05/03 05:42:50;;;;;;;0.90;0.80;;;7.70;99.90;;;;;;5026921;28;20466;-75
2023/05/03 05:45:20;;;;;;;0.60;0.10;;;7.70;99.90;;;;;;5032474;28;20546;-74
2023/05/03 05:47:47;;;;;;;0.80;0.30;;;7.80;99.90;;;;;;5034595;28;20483;-74
2023/05/03 05:50:15;;;;;;;0.60;0.10;;;7.90;99.90;;;;;;5022779;28;20856;-71
2023/05/03 05:52:46;;;;;;;0.70;0.50;;;;;;;;;;5015692;28;20440;-74
2023/05/03 05:55:14;;;;;;;0.80;0.57;;;7.90;99.90;;;;;;5031568;28;20517;-75
2023/05/03 05:57:42;;;;;;;1.03;0.77;;;8.10;99.90;;;;;;5036450;28;20447;-75
2023/05/03 06:00:14;;;;;;;0.60;0.17;;;8.40;99.90;;;;;;5034824;28;21003;-74
2023/05/03 06:02:43;;;;;;;0.60;0.10;;;8.40;99.90;;;;;;5034627;28;20589;-74
2023/05/03 06:05:11;;;;;;;0.60;0.10;;;11.90;99.90;;;;;;5035598;28;20463;-73
2023/05/03 06:07:40;;;;;;;0.60;0.30;;;8.60;99.90;;;;;;5029805;28;20455;-74
2023/05/03 06:10:08;;;;;;;1.17;0.53;;;8.60;99.90;;;;;;5018743;28;20463;-73
2023/05/03 06:12:36;;;;;;;0.60;0.20;;;8.70;99.90;;;;;;5032449;28;20443;-75
2023/05/03 06:15:06;;;;;;;3.53;1.30;;;8.70;99.90;;;;;;5032666;28;20482;-74
2023/05/03 06:17:33;;;;;;;0.90;0.73;;;8.70;99.90;;;;;;5032838;28;20447;-73
2023/05/03 06:20:03;;;;;;;0.60;0.27;;;8.60;99.90;;;;;;5036074;28;20478;-76
2023/05/03 06:22:32;;;;;;;1.07;0.50;;;8.70;99.70;;;;;;5036282;28;20435;-74
2023/05/03 06:25:00;;;;;;;0.60;0.10;;;8.60;99.90;;;;;;5038531;28;20465;-75
2023/05/03 06:27:28;;;;;;;0.60;0.10;;;8.70;99.90;;;;;;5037025;28;20954;-75
2023/05/03 06:29:56;;;;;;;0.60;0.10;;;8.80;99.90;;;;;;5037027;28;20526;-72
2023/05/03 06:32:24;;;;;;;1.77;0.77;;;8.80;99.90;;;;;;5016974;28;20439;-73
2023/05/03 06:34:52;;;;;;;0.60;0.20;;;8.80;99.90;;;;;;5016852;28;20470;-75
2023/05/03 06:37:23;;;;;;;0.60;0.20;;;8.90;99.90;;;;;;5017303;28;20444;-75
2023/05/03 06:39:51;;;;;;;0.60;0.10;;;9.00;99.90;;;;;;5018728;28;20967;-75
2023/05/03 06:42:19;;;;;;;0.60;0.10;;;;;;;;;;5021928;28;20439;-74
2023/05/03 06:44:48;;;;;;;0.70;0.50;;;;;;;;;;5040266;28;20493;-75
2023/05/03 06:47:15;;;;;;;1.30;0.80;;;9.30;99.40;;;;;;5042547;28;20823;-74
2023/05/03 06:49:43;;;;;;;0.60;0.30;;;9.20;99.40;;;;;;5036791;28;20531;-74
2023/05/03 06:52:11;;;;;;;0.80;0.70;;;9.20;99.50;;;;;;5031608;28;20443;-74
2023/05/03 06:54:40;;;;;;;1.10;0.30;;;9.10;99.30;;;;;;5022683;28;20927;-74
2023/05/03 06:57:09;;;;;;;0.60;0.10;;;9.20;99.90;;;;;;5037928;28;20508;-75
2023/05/03 06:59:37;;;;;;;0.60;0.10;;;9.10;99.70;;;;;;5040349;28;20851;-74
2023/05/03 07:02:05;;;;;;;0.60;0.30;;;9.10;99.90;;;;;;5036678;28;20493;-75
2023/05/03 07:04:33;;;;;;;0.60;0.30;;;5.30;99.90;;;;;;5035832;28;20521;-75
2023/05/03 07:07:01;;;;;;;0.60;0.10;;;9.40;99.90;;;;;;5035571;28;20479;-73
2023/05/03 07:09:30;;;;;;;0.60;0.10;;;11.90;99.90;;;;;;5035404;28;20443;-73
2023/05/03 07:12:11;;;;;;;0.60;0.10;;;;;;;;;;5035405;28;20430;-71
2023/05/03 07:14:39;;;;;;;4.40;1.50;;;9.80;99.90;;;;;;5035817;28;21064;-74
2023/05/03 07:17:07;;;;;;;0.60;0.20;;;9.90;99.90;;;;;;5036399;28;20446;-73
2023/05/03 07:19:36;;;;;;;0.60;0.17;;;9.90;99.90;;;;;;5039196;28;20457;-73
2023/05/03 07:22:04;;;;;;;0.60;0.10;;;10.00;99.90;;;;;;5035317;28;20979;-74
2023/05/03 07:24:32;;;;;;;0.60;0.30;;;10.00;99.90;;;;;;5033539;28;20479;-73
2023/05/03 07:27:00;;;;;;;0.60;0.10;;;10.00;99.90;;;;;;5028526;28;20482;-75
2023/05/03 07:29:29;;;;;;;0.60;0.40;;;10.00;99.90;;;;;;5035368;28;20454;-75
2023/05/03 07:31:57;;;;;;;0.60;0.10;;;10.00;99.90;;;;;;5035302;28;20444;-75
2023/05/03 07:34:25;;;;;;;0.60;0.10;;;10.30;99.90;;;;;;5033670;28;20837;-74
2023/05/03 07:36:55;;;;;;;0.70;0.30;;;10.40;99.90;;;;;;5038879;28;20485;-74
2023/05/03 07:39:23;;;;;;;0.60;0.10;;;10.50;99.90;;;;;;5039434;28;20444;-74
2023/05/03 07:41:50;;;;;;;0.83;0.60;;;10.50;99.90;;;;;;5037709;28;20478;-74
2023/05/03 07:44:18;;;;;;;1.07;0.50;;;10.50;99.90;;;;;;5037979;28;20479;-75
2023/05/03 07:46:47;;;;;;;1.30;0.83;;;10.50;99.40;;;;;;5039929;28;20547;-74
2023/05/03 07:49:16;;;;;;;0.60;0.20;;;10.50;99.90;;;;;;5037129;28;20443;-74
2023/05/03 07:51:44;;;;;;;0.60;0.10;;;10.60;99.90;;;;;;5041780;28;20443;-75
2023/05/03 07:54:11;;;;;;;1.93;1.60;;;10.70;99.90;;;;;;5039082;28;20882;-76
2023/05/03 07:56:39;;;;;;;0.70;0.50;;;10.70;99.90;;;;;;5038841;28;20444;-75
2023/05/03 07:59:07;;;;;;;0.90;0.30;;;10.70;99.90;;;;;;5035617;28;21034;-74
2023/05/03 08:01:37;;;;;;;0.60;0.17;;;10.80;99.90;;;;;;5034695;28;20475;-75
2023/05/03 08:04:07;;;;;;;0.60;0.10;;;11.70;99.90;;;;;;5034569;28;20479;-74
2023/05/03 08:06:37;;;;;;;0.60;0.10;;;11.00;99.90;;;;;;5034620;28;20455;-75
2023/05/03 08:09:05;;;;;;;0.60;0.10;;;11.00;99.90;;;;;;5035108;28;20449;-74
2023/05/03 08:11:33;;;;;;;0.90;0.80;;;11.10;99.90;;;;;;5034382;28;20778;-74
2023/05/03 08:14:01;;;;;;;0.60;0.10;;;11.10;99.90;;;;;;5041168;28;20493;-73
2023/05/03 08:16:29;;;;;;;0.60;0.10;;;11.30;99.90;;;;;;5054893;28;20443;-75
2023/05/03 08:18:57;;;;;;;0.60;0.10;;;11.30;99.90;;;;;;5035549;28;20458;-73
2023/05/03 08:21:27;;;;;;;0.60;0.10;;;11.30;99.90;;;;;;5034474;28;20554;-74
2023/05/03 08:23:55;;;;;;;0.60;0.10;;;11.40;99.90;;;;;;5034684;28;21185;-74
2023/05/03 08:26:23;;;;;;;0.60;0.10;;;11.50;99.90;;;;;;5037447;28;20461;-74
2023/05/03 08:28:51;;;;;;;0.60;0.10;;;11.60;99.90;;;;;;5036359;28;20444;-74
2023/05/03 08:31:19;;;;;;;0.60;0.10;;;11.60;99.90;;;;;;5034663;28;20473;-73
2023/05/03 08:33:47;;;;;;;0.60;0.20;;;11.60;99.90;;;;;;5033785;28;20494;-75
2023/05/03 08:36:15;;;;;;;0.60;0.10;;;;;;;;;;5033704;28;20460;-75
2023/05/03 08:38:45;;;;;;;0.70;0.40;;;;;;;;;;5033898;28;20452;-73
2023/05/03 08:41:21;;;;;;;0.60;0.10;;;11.70;99.80;;;;;;5034039;28;20861;-74
2023/05/03 08:43:53;;;;;;;0.60;0.20;;;11.80;99.90;;;;;;5034034;28;20923;-74
2023/05/03 08:46:21;;;;;;;0.60;0.20;;;11.90;99.90;;;;;;5039108;28;20895;-75
2023/05/03 08:48:51;;;;;;;0.60;0.10;;;11.90;99.90;;;;;;5040347;28;20455;-74
2023/05/03 08:51:20;;;;;;;0.60;0.20;;;12.00;99.90;;;;;;5038078;28;20451;-74
2023/05/03 08:53:49;;;;;;;0.70;0.40;;;12.10;99.90;;;;;;5035609;28;20471;-75
2023/05/03 08:56:24;;;;;;;0.60;0.10;;;12.10;99.90;;;;;;5036211;28;20487;-74
2023/05/03 08:58:52;;;;;;;1.53;0.30;;;12.20;99.50;;;;;;5041058;28;20451;-73
2023/05/03 09:01:20;;;;;;;1.20;0.93;;;12.20;99.10;;;;;;5042032;28;20468;-74
2023/05/03 09:03:50;;;;;;;0.60;0.10;;;12.20;99.30;;;;;;5042390;28;20496;-75
2023/05/03 09:06:20;;;;;;;0.60;0.13;;;12.20;99.30;;;;;;5038759;28;20452;-74
2023/05/03 09:08:49;;;;;;;0.60;0.10;;;12.40;99.90;;;;;;5038303;28;20444;-74
2023/05/03 09:11:24;;;;;;;0.60;0.10;;;12.50;99.30;;;;;;5040059;28;20959;-74
2023/05/03 09:13:52;;;;;;;0.60;0.10;;;12.40;97.60;;;;;;5039612;28;20475;-74
2023/05/03 09:16:26;;;;;;;0.60;0.10;;;12.40;97.20;;;;;;5037824;28;20452;-75
2023/05/03 09:18:58;;;;;;;0.60;0.10;;;12.40;97.80;;;;;;5037788;28;20448;-74
2023/05/03 09:21:26;;;;;;;0.60;0.10;;;12.30;97.80;;;;;;5035418;28;20531;-74
2023/05/03 09:23:57;;;;;;;0.60;0.10;;;12.40;98.30;;;;;;5028195;28;20482;-74
2023/05/03 09:26:29;;;;;;;1.47;0.50;;;12.20;98.20;;;;;;5036878;28;20445;-73
2023/05/03 09:28:58;;;;;;;0.87;0.57;;;12.70;96.00;;;;;;5037981;28;20978;-74
2023/05/03 09:31:27;;;;;;;0.73;0.27;;;12.70;94.60;;;;;;5035328;28;20559;-75
2023/05/03 09:33:55;;;;;;;2.43;2.27;;;12.60;94.00;;;;;;5035440;28;20476;-75
2023/05/03 09:36:23;;;;;;;0.93;0.30;;;12.70;94.50;;;;;;5036002;28;20820;-75
2023/05/03 09:38:52;;;;;;;0.60;0.10;;;12.80;94.70;;;;;;5034428;28;20734;-74
2023/05/03 09:41:31;;;;;;;0.60;0.10;;;12.90;94.30;;;;;;5027365;28;20956;-76
2023/05/03 09:44:01;;;;;;;0.60;0.10;;;13.00;94.30;;;;;;5029531;28;20468;-75
2023/05/03 09:46:30;;;;;;;0.60;0.10;;;13.10;95.00;;;;;;5026266;28;20444;-76
2023/05/03 09:48:59;;;;;;;0.60;0.10;;;13.20;95.20;;;;;;5025342;28;20956;-75
2023/05/03 09:51:27;;;;;;;0.60;0.10;;;13.40;95.70;;;;;;5031573;28;20453;-76
2023/05/03 09:53:57;;;;;;;0.60;0.10;;;13.30;90.90;;;;;;5032832;28;20977;-76
2023/05/03 09:56:26;;;;;;;0.60;0.10;;;13.40;91.40;;;;;;5033569;28;20449;-76
2023/05/03 09:58:55;;;;;;;0.80;0.33;;;13.50;87.10;;;;;;5032690;28;20450;-77
2023/05/03 10:01:25;;;;;;;0.60;0.10;;;13.50;85.80;;;;;;5033162;28;20456;-77
2023/05/03 10:03:56;;;;;;;0.90;0.33;;;13.50;84.80;;;;;;5033764;28;20494;-76
2023/05/03 10:06:26;;;;;;;0.60;0.20;;;13.60;84.00;;;;;;5034563;28;20968;-76
2023/05/03 10:09:04;;;;;;;0.70;0.50;;;13.60;84.00;;;;;;5033902;28;20528;-74
2023/05/03 10:11:35;;;;;;;1.87;0.27;;;13.60;87.60;;;;;;5032832;28;20499;-77
2023/05/03 10:14:06;;;;;;;0.60;0.10;;;13.70;90.60;;;;;;5038290;23;21283;-77
2023/05/03 10:16:38;;;;;;;0.60;0.10;;;13.80;90.70;;;;;;5055407;28;20448;-77
2023/05/03 10:19:13;;;;;;;0.60;0.10;;;14.00;91.80;;;;;;5055161;28;20432;-78
2023/05/03 10:21:54;;;;;;;0.70;0.30;;;14.10;91.90;;;;;;5056468;28;20509;-77
2023/05/03 10:24:21;;;;;;;0.60;0.10;;;14.30;91.30;;;;;;5055138;28;20591;-77
2023/05/03 10:26:51;;;;;;;0.60;0.20;;;14.20;91.40;;;;;;5060208;28;20454;-78
2023/05/03 10:29:50;;;;;;;0.60;0.10;;;14.20;95.00;;;;;;5056146;28;20442;-77
2023/05/03 10:32:32;;;;;;;0.80;0.77;;;14.20;90.50;;;;;;5055924;28;20441;-78
2023/05/03 10:35:02;;;;;;;0.60;0.17;;;14.30;89.70;;;;;;5044128;28;20473;-76
2023/05/03 10:37:33;;;;;;;0.60;0.20;;;14.40;90.10;;;;;;5047184;28;20441;-78
2023/05/03 10:40:10;;;;;;;0.60;0.20;;;14.40;86.10;;;;;;5054456;28;20430;-78
2023/05/03 10:42:38;;;;;;;0.60;0.10;;;14.40;86.00;;;;;;5054821;28;20474;-79
2023/05/03 10:45:11;;;;;;;0.60;0.10;;;14.50;87.60;;;;;;5056745;28;20467;-78
2023/05/03 10:47:40;;;;;;;0.60;0.10;;;14.50;94.40;;;;;;5053845;28;20897;-76
2023/05/03 10:50:27;;;;;;;3.00;0.97;;;14.50;94.00;;;;;;5058477;28;20452;-78
2023/05/03 10:52:55;;;;;;;0.60;0.20;;;;;;;;;;5056551;28;20469;-78
2023/05/03 10:55:24;;;;;;;0.60;0.10;;;14.70;88.30;;;;;;5058318;28;20471;-78
2023/05/03 10:57:56;;;;;;;0.60;0.10;;;14.70;94.50;;;;;;5058261;28;20467;-78
2023/05/03 11:00:33;;;;;;;0.60;0.10;;;14.70;92.90;;;;;;5047685;28;20467;-77
2023/05/03 11:03:13;;;;;;;0.60;0.10;;;14.80;93.60;;;;;;5061574;28;20486;-80
2023/05/03 11:05:41;;;;;;;0.60;0.10;;;14.90;89.30;;;;;;5067153;28;20477;-78
2023/05/03 11:08:11;;;;;;;0.60;0.20;;;15.10;84.00;;;;;;5073638;28;20513;-78
2023/05/03 11:10:40;;;;;;;0.60;0.20;;;;;;;;;;5066828;28;20416;-78
2023/05/03 11:13:08;;;;;;;0.60;0.10;;;15.00;80.70;;;;;;5070221;28;20544;-78
2023/05/03 11:15:38;;;;;;;0.60;0.10;;;;;;;;;;5072614;28;20503;-80
2023/05/03 11:18:07;;;;;;;0.60;0.10;;;15.10;81.40;;;;;;5072631;28;20448;-79
2023/05/03 11:20:36;;;;;;;0.60;0.10;;;15.10;91.20;;;;;;5068467;28;20545;-79
2023/05/03 11:23:04;;;;;;;0.80;0.67;;;15.30;77.90;;;;;;5068722;28;20492;-79
2023/05/03 11:25:33;;;;;;;1.07;0.40;;;15.20;78.40;;;;;;5043736;28;20475;-78
2023/05/03 11:28:01;;;;;;;0.60;0.10;;;15.20;90.20;;;;;;5037931;28;20481;-78
2023/05/03 11:30:29;;;;;;;0.70;0.43;;;15.30;90.80;;;;;;5041706;28;20503;-79
2023/05/03 11:32:59;;;;;;;0.80;0.73;;;15.40;90.50;;;;;;5040271;28;20951;-78
2023/05/03 11:35:31;;;;;;;0.70;0.53;;;15.40;80.60;;;;;;5044131;28;20575;-79
2023/05/03 11:37:59;;;;;;;0.60;0.10;;;15.50;82.10;;;;;;5061178;28;20436;-79
2023/05/03 11:40:27;;;;;;;0.60;0.10;;;15.60;90.50;;;;;;5068131;28;20478;-79
2023/05/03 11:42:57;;;;;;;0.60;0.20;;;15.70;79.10;;;;;;5066846;28;20723;-78
2023/05/03 11:45:26;;;;;;;0.60;0.10;;;15.70;80.10;;;;;;5067185;28;20530;-78
2023/05/03 11:47:55;;;;;;;0.60;0.10;;;15.80;78.30;;;;;;5063457;28;20484;-78
2023/05/03 11:50:47;;;;;;;0.60;0.20;;;15.80;89.40;;;;;;5044603;28;20469;-78
2023/05/03 11:53:16;;;;;;;0.60;0.10;;;15.70;77.60;;;;;;5040146;28;20444;-78
2023/05/03 11:55:46;;;;;;;0.60;0.10;;;15.70;77.10;;;;;;5038377;28;20861;-79
2023/05/03 11:58:16;;;;;;;0.60;0.10;;;15.90;77.50;;;;;;5042474;28;20945;-78
2023/05/03 12:00:45;;;;;;;0.60;0.10;;;15.90;77.90;;;;;;5044669;28;20452;-77
2023/05/03 12:03:17;;;;;;;0.60;0.20;;;16.10;76.60;;;;;;5042257;28;20472;-79
2023/05/03 12:05:48;;;;;;;0.60;0.10;;;16.20;77.70;;;;;;5040114;28;20472;-77
2023/05/03 12:08:18;;;;;;;0.60;0.20;;;16.20;77.20;;;;;;5035671;28;20971;-78
2023/05/03 12:10:49;;;;;;;0.70;0.30;;;16.20;76.50;;;;;;5037817;28;20819;-78
2023/05/03 12:13:27;;;;;;;0.60;0.10;;;16.20;78.20;;;;;;5052310;28;20440;-78
2023/05/03 12:15:59;;;;;;;0.60;0.10;;;16.20;70.10;;;;;;5057760;28;20998;-79
2023/05/03 12:18:48;;;;;;;0.60;0.10;;;16.10;75.10;;;;;;5059694;28;20864;-78
2023/05/03 12:21:19;;;;;;;0.60;0.13;;;16.10;74.20;;;;;;5057999;28;20482;-79
2023/05/03 12:23:51;;;;;;;0.80;0.33;;;16.20;73.80;;;;;;5053647;28;20481;-78
2023/05/03 12:26:23;;;;;;;0.60;0.20;;;16.30;70.90;;;;;;5042533;28;20491;-78
2023/05/03 12:28:52;;;;;;;0.60;0.10;;;16.40;71.60;;;;;;5039732;28;20451;-78
2023/05/03 12:31:23;;;;;;;0.80;0.40;;;16.40;83.50;;;;;;5039410;28;20451;-79
2023/05/03 12:33:54;;;;;;;0.60;0.10;;;16.50;69.10;;;;;;5050316;28;20583;-78
2023/05/03 12:36:44;;;;;;;0.60;0.10;;;16.50;71.90;;;;;;5025927;28;20500;-79
2023/05/03 12:39:15;;;;;;;0.60;0.10;;;16.60;71.90;;;;;;5029915;28;20499;-78
2023/05/03 12:41:43;;;;;;;0.70;0.53;;;16.70;73.00;;;;;;5047111;28;20454;-79
2023/05/03 12:44:14;;;;;;;0.60;0.10;;;16.80;71.90;;;;;;5056194;28;20493;-79
2023/05/03 12:46:44;;;;;;;0.60;0.20;;;16.80;72.10;;;;;;5057477;28;20533;-79
2023/05/03 12:49:12;;;;;;;0.60;0.30;;;16.80;70.40;;;;;;5057053;28;20454;-78
2023/05/03 12:51:43;;;;;;;2.37;2.27;;;16.80;82.50;;;;;;5047810;28;20803;-79
2023/05/03 12:54:29;;;;;;;0.60;0.10;;;16.80;69.00;;;;;;5036983;28;20466;-78
2023/05/03 12:57:02;;;;;;;1.07;0.30;;;16.80;70.90;;;;;;5036270;28;20876;-78
2023/05/03 12:59:36;;;;;;;0.70;0.43;;;16.80;82.00;;;;;;5037061;28;20459;-79
2023/05/03 13:02:10;;;;;;;0.60;0.10;;;;;;;;;;5035105;28;20908;-79
2023/05/03 13:04:41;;;;;;;0.60;0.20;;;16.90;71.90;;;;;;5043205;28;20917;-78
2023/05/03 13:07:29;;;;;;;0.60;0.10;;;17.10;71.50;;;;;;5036617;28;20503;-79
2023/05/03 13:10:03;;;;;;;0.60;0.10;;;17.10;82.50;;;;;;5036824;28;20461;-78
2023/05/03 13:12:35;;;;;;;0.60;0.20;;;17.10;84.20;;;;;;5021752;28;20464;-79
2023/05/03 13:15:03;;;;;;;0.80;0.30;;;17.20;70.80;;;;;;5020798;28;21009;-79
2023/05/03 13:17:32;;;;;;;0.60;0.10;;;17.30;72.30;;;;;;5020671;28;20443;-78
2023/05/03 13:20:00;;;;;;;0.60;0.10;;;17.40;76.70;;;;;;5036148;28;20451;-77
2023/05/03 13:22:30;;;;;;;0.80;0.60;;;17.60;74.30;;;;;;5037345;28;20813;-79
2023/05/03 13:24:58;;;;;;;0.60;0.20;;;17.50;71.80;;;;;;5036935;28;20931;-78
2023/05/03 13:27:26;;;;;;;0.60;0.10;;;17.50;83.80;;;;;;5038651;28;20450;-78
2023/05/03 13:29:54;;;;;;;0.60;0.10;;;17.60;73.40;;;;;;5058147;28;20517;-78
2023/05/03 13:32:22;;;;;;;12.23;4.03;;;17.80;72.30;;;;;;5057500;28;20465;-79
2023/05/03 13:34:50;;;;;;;1.70;0.50;;;;;;;;;;5056112;28;20553;-79
2023/05/03 13:37:18;;;;;;;1.80;1.70;;;17.80;65.20;;;;;;5056900;28;20827;-77
2023/05/03 13:39:47;;;;;;;0.60;0.10;;;17.80;67.70;;;;;;5052281;28;20461;-79
2023/05/03 13:42:15;;;;;;;0.60;0.10;;;17.90;65.60;;;;;;5035205;28;20819;-79
2023/05/03 13:44:45;;;;;;;0.60;0.10;;;18.00;68.40;;;;;;5035863;28;20593;-79
2023/05/03 13:47:13;;;;;;;0.60;0.10;;;18.00;68.50;;;;;;5036201;28;20455;-78
2023/05/03 13:49:41;;;;;;;0.83;0.67;;;18.10;68.40;;;;;;5035574;28;20931;-78
2023/05/03 13:52:09;;;;;;;0.60;0.10;;;18.10;79.90;;;;;;5051949;28;20454;-77
2023/05/03 13:54:37;;;;;;;0.70;0.30;;;18.20;69.90;;;;;;5061156;28;20489;-78
2023/05/03 13:57:06;;;;;;;0.60;0.10;;;18.10;71.70;;;;;;5058498;28;20434;-77
2023/05/03 13:59:34;;;;;;;0.60;0.17;;;18.10;83.20;;;;;;5058745;28;20497;-78
2023/05/03 14:02:02;;;;;;;0.60;0.10;;;18.20;73.80;;;;;;5056891;28;20461;-78
2023/05/03 14:04:30;;;;;;;0.60;0.20;;;18.30;74.30;;;;;;5036934;28;20493;-78
2023/05/03 14:07:01;;;;;;;0.60;0.10;;;18.30;86.20;;;;;;5037387;28;20458;-79
2023/05/03 14:09:29;;;;;;;0.60;0.10;;;18.40;67.20;;;;;;5036042;28;20445;-77
2023/05/03 14:11:57;;;;;;;0.60;0.10;;;18.40;68.00;;;;;;5038879;28;20461;-78
2023/05/03 14:14:27;;;;;;;0.60;0.20;;;18.50;67.80;;;;;;5059274;28;20474;-78
2023/05/03 14:16:55;;;;;;;0.70;0.37;;;18.60;71.50;;;;;;5059289;28;20501;-79
2023/05/03 14:19:23;;;;;;;0.67;0.40;;;18.80;68.10;;;;;;5057424;28;20453;-78
2023/05/03 14:21:57;;;;;;;0.60;0.20;;;18.70;63.50;;;;;;5058731;28;20470;-77
2023/05/03 14:24:26;;;;;;;3.17;2.97;;;18.70;65.50;;;;;;5041282;28;20552;-78
2023/05/03 14:26:54;;;;;;;0.60;0.10;;;18.70;63.80;;;;;;5039130;28;20515;-78
2023/05/03 14:29:22;;;;;;;0.60;0.10;;;18.80;66.70;;;;;;5041575;28;20442;-77
2023/05/03 14:31:51;;;;;;;0.60;0.20;;;19.00;64.50;;;;;;5037233;28;20521;-79
2023/05/03 14:34:20;;;;;;;0.60;0.10;;;19.00;62.30;;;;;;5034963;28;21046;-78
2023/05/03 14:36:48;;;;;;;0.60;0.10;;;19.00;64.90;;;;;;5037442;28;20454;-78
2023/05/03 14:39:16;;;;;;;0.60;0.10;;;19.20;64.60;;;;;;5038716;28;20475;-78
2023/05/03 14:41:44;;;;;;;0.60;0.10;;;19.40;65.40;;;;;;5042097;28;20522;-78
2023/05/03 14:44:12;;;;;;;0.60;0.20;;;19.50;65.40;;;;;;5060350;28;20498;-78
2023/05/03 14:46:39;;;;;;;1.03;0.67;;;19.50;65.20;;;;;;5063630;28;20450;-78
2023/05/03 14:49:09;;;;;;;0.60;0.10;;;19.50;66.20;;;;;;5063194;28;20507;-78
2023/05/03 14:51:36;;;;;;;0.60;0.30;;;19.60;69.10;;;;;;5065662;28;20446;-78
2023/05/03 14:54:05;;;;;;;0.90;0.20;;;19.70;68.70;;;;;;5060862;28;20438;-78
2023/05/03 14:56:33;;;;;;;0.60;0.20;;;19.70;80.90;;;;;;5060765;28;20459;-78
2023/05/03 14:59:01;;;;;;;0.60;0.20;;;19.70;61.10;;;;;;5042929;28;20517;-77
2023/05/03 15:01:29;;;;;;;0.80;0.57;;;19.70;61.00;;;;;;5044748;28;20466;-78
2023/05/03 15:03:57;;;;;;;4.20;0.73;;;19.70;59.90;;;;;;5044781;28;20550;-77
2023/05/03 15:06:27;;;;;;;0.60;0.10;;;;;;;;;;5040902;28;20534;-77
2023/05/03 15:08:55;;;;;;;0.60;0.10;;;19.80;59.70;;;;;;5033449;28;20451;-78
2023/05/03 15:11:23;;;;;;;0.73;0.57;;;19.70;59.30;;;;;;5027770;28;20501;-78
2023/05/03 15:13:51;;;;;;;0.60;0.20;;;19.90;60.60;;;;;;5023698;28;20451;-79
2023/05/03 15:16:19;;;;;;;0.60;0.20;;;20.10;61.50;;;;;;5020057;28;20436;-78
2023/05/03 15:18:48;;;;;;;0.60;0.10;;;20.30;63.30;;;;;;5025384;28;20444;-77
2023/05/03 15:21:19;;;;;;;0.80;0.50;;;20.20;74.00;;;;;;5057766;28;20478;-78
2023/05/03 15:23:49;;;;;;;0.60;0.20;;;20.40;64.30;;;;;;5057945;28;20561;-78
2023/05/03 15:26:17;;;;;;;0.60;0.17;;;20.40;63.90;;;;;;5057074;28;20481;-78
2023/05/03 15:28:45;;;;;;;0.60;0.10;;;20.70;66.40;;;;;;5062184;28;20445;-77
2023/05/03 15:31:13;;;;;;;0.60;0.20;;;20.60;78.20;;;;;;5059490;28;20450;-78
2023/05/03 15:33:42;;;;;;;1.20;1.10;;;20.90;67.20;;;;;;5061893;28;20446;-78
2023/05/03 15:36:11;;;;;;;0.70;0.30;;;20.90;68.20;;;;;;5059330;28;20461;-78
2023/05/03 15:38:39;;;;;;;0.60;0.20;;;;;;;;;;5058437;28;20554;-76
2023/05/03 15:41:08;;;;;;;0.60;0.10;;;21.40;64.90;;;;;;5057552;28;20447;-77
2023/05/03 15:43:37;;;;;;;0.60;0.10;;;21.60;63.60;;;;;;5051972;28;20452;-79
2023/05/03 15:46:05;;;;;;;0.60;0.20;;;21.90;64.80;;;;;;5056944;28;20468;-78
2023/05/03 15:48:33;;;;;;;0.60;0.20;;;;;;;;;;5049665;28;20444;-77
2023/05/03 15:51:01;;;;;;;0.60;0.20;;;22.10;61.10;;;;;;5045989;28;20454;-78
2023/05/03 15:53:29;;;;;;;0.60;0.20;;;22.10;72.30;;;;;;5045754;28;20477;-77
2023/05/03 15:55:57;;;;;;;0.60;0.20;;;;;;;;;;5045262;28;20764;-78
2023/05/03 15:58:27;;;;;;;0.60;0.20;;;21.90;56.50;;;;;;5035701;28;20452;-78
2023/05/03 16:00:56;;;;;;;4.20;0.60;;;;;;;;;;5038564;28;20989;-78
2023/05/03 16:03:25;;;;;;;0.60;0.10;;;21.90;56.60;;;;;;5036511;28;20804;-78
2023/05/03 16:05:53;;;;;;;0.70;0.27;;;22.00;55.40;;;;;;5036285;28;20548;-77
2023/05/03 16:08:21;;;;;;;2.20;2.10;;;22.00;57.00;;;;;;5047523;28;20942;-78
2023/05/03 16:10:48;;;;;;;0.70;0.40;;;22.20;58.50;;;;;;5039742;28;20445;-78
2023/05/03 16:13:16;;;;;;;0.70;0.20;;;22.20;55.80;;;;;;5036432;28;20461;-77
2023/05/03 16:15:47;;;;;;;1.23;1.07;;;22.30;59.20;;;;;;5035194;28;20933;-76
2023/05/03 16:18:15;;;;;;;1.40;0.40;;;22.40;54.10;;;;;;5033207;28;20497;-77
2023/05/03 16:20:43;;;;;;;0.70;0.37;;;22.40;53.70;;;;;;5038378;28;20463;-78
2023/05/03 16:23:11;;;;;;;0.70;0.30;;;22.50;56.20;;;;;;5035922;28;20476;-77
2023/05/03 16:25:39;;;;;;;0.70;0.20;;;22.70;52.60;;;;;;5037154;28;20455;-78
2023/05/03 16:28:07;;;;;;;0.60;0.10;;;22.90;54.20;;;;;;5036192;28;20483;-77
2023/05/03 16:30:35;;;;;;;0.60;0.10;;;;;;;;;;5035897;28;20468;-78
2023/05/03 16:33:05;;;;;;;0.70;0.30;;;23.10;54.20;;;;;;5035423;28;20458;-77
2023/05/03 16:35:33;;;;;;;0.70;0.20;;;23.10;53.10;;;;;;5035950;28;20485;-77
2023/05/03 16:38:01;;;;;;;2.80;0.83;;;23.10;64.20;;;;;;5034852;28;20440;-77
2023/05/03 16:40:31;;;;;;;0.80;0.70;;;;;;;;;;5034432;28;20461;-78
2023/05/03 16:42:59;;;;;;;0.70;0.23;;;;;;;;;;5035430;28;20969;-77
2023/05/03 16:45:27;;;;;;;0.70;0.10;;;;;;;;;;5017025;28;20463;-78
2023/05/03 16:47:55;;;;;;;1.00;0.20;;;23.30;46.90;;;;;;5015419;28;20474;-78
2023/05/03 16:50:25;;;;;;;1.07;0.50;;;23.30;58.50;;;;;;5030046;28;20547;-78
2023/05/03 16:52:53;;;;;;;0.70;0.20;;;23.30;54.80;;;;;;5033747;28;21060;-77
2023/05/03 16:55:22;;;;;;;0.60;0.20;;;23.00;45.40;;;;;;5034376;28;21003;-77
2023/05/03 16:57:50;;;;;;;0.70;0.20;;;23.10;49.90;;;;;;5034502;28;20450;-78
2023/05/03 17:00:19;;;;;;;0.70;0.20;;;;;;;;;;5037531;28;20481;-78
2023/05/03 17:02:47;;;;;;;0.60;0.20;;;23.20;46.60;;;;;;5034675;28;20473;-76
2023/05/03 17:05:15;;;;;;;0.70;0.20;;;23.40;46.30;;;;;;5036598;28;20557;-76
2023/05/03 17:07:44;;;;;;;0.70;0.17;;;23.60;44.30;;;;;;5035389;28;20450;-78
2023/05/03 17:10:12;;;;;;;0.70;0.20;;;23.70;44.50;;;;;;5027504;28;20828;-77